Mr Chip — WDC3048 — position and weather

sailwx.info

Track history (hours):
 
Tides and Currents Weather Stations Pressure Air Temp Water Temp Dewpoint Dewpoint Depression Visibility Wind Speed Wind Dir Waves Ship Positions

Mr Chip

Owner: CENTRAL BOAT RENTALS, BERWICK, LA. More information available from US FCC via Universal Licensing System and Coast Guard Vessel Documentation Center.

Last reported at 2018-Aug-14 04:59 UTC. Time now 2018-Aug-14 07:04 UTC.
Position N 29°21' W 090°44'.

Length 14 m; draft 2.3 m.

Type: Tug. MMSI: 367001990.

Date/timePositionNaut miles runAvg speedWind from/ knotsBaromVisibWave heightAir tempDewpointWater temp
2018-Aug-14 04:59N 29°21' W 090°44'3 6.4
2018-Aug-14 04:29N 29°24' W 090°44'3 6.0
2018-Aug-14 04:00N 29°27' W 090°43'3 5.9
2018-Aug-14 03:30N 29°30' W 090°43'3 5.8
2018-Aug-14 03:00N 29°32' W 090°42'2 3.6
2018-Aug-14 02:30N 29°34' W 090°44'2 5.0
2018-Aug-14 02:00N 29°32' W 090°46'3 5.3
2018-Aug-14 01:30N 29°32' W 090°49'7 0.4
2018-Aug-13 09:20N 29°34' W 090°57'6 4.9
2018-Aug-13 08:06N 29°32' W 090°50'1 5.1
2018-Aug-13 07:58N 29°32' W 090°49'2 5.1
2018-Aug-13 07:30N 29°32' W 090°47'2 4.5
2018-Aug-13 07:00N 29°34' W 090°45'2 3.1
2018-Aug-13 06:29N 29°34' W 090°43'1 2.2
2018-Aug-13 05:59N 29°33' W 090°42'2 4.7
2018-Aug-13 05:30N 29°31' W 090°43'3 5.2
2018-Aug-13 05:00N 29°28' W 090°43'3 5.1
2018-Aug-13 04:27N 29°26' W 090°43'3 5.1
2018-Aug-13 03:55N 29°23' W 090°44'2 0.0
2018-Aug-11 01:58N 29°21' W 090°44'4 5.7
2018-Aug-11 01:20N 29°24' W 090°44'2 5.3
2018-Aug-11 01:00N 29°26' W 090°43'3 5.3
2018-Aug-11 00:30N 29°29' W 090°43'2 5.0
2018-Aug-11 00:00N 29°31' W 090°42'2 4.7
2018-Aug-10 23:30N 29°33' W 090°43'1 1.5
2018-Aug-10 22:58N 29°34' W 090°43'0 0.0
2018-Aug-10 22:31N 29°34' W 090°43'0 1.0
2018-Aug-10 22:00N 29°34' W 090°43'2 4.3
2018-Aug-10 21:30N 29°33' W 090°45'2 4.3
2018-Aug-10 21:00N 29°32' W 090°48'  
Track history (hours):
 
Tides and Currents Weather Stations Pressure Air Temp Water Temp Dewpoint Dewpoint Depression Visibility Wind Speed Wind Dir Waves Ship Positions

Mr Chip

Owner: CENTRAL BOAT RENTALS, BERWICK, LA. More information available from US FCC via Universal Licensing System and Coast Guard Vessel Documentation Center.

Last reported at 2018-Aug-14 04:59 UTC. Time now 2018-Aug-14 07:04 UTC.
Position N 29°21' W 090°44'.

Length 14 m; draft 2.3 m.

Type: Tug. MMSI: 367001990.

Date/timePositionNaut miles runAvg speedWind from/ knotsBaromVisibWave heightAir tempDewpointWater temp
2018-Aug-14 04:59N 29°21' W 090°44'3 6.4
2018-Aug-14 04:29N 29°24' W 090°44'3 6.0
2018-Aug-14 04:00N 29°27' W 090°43'3 5.9
2018-Aug-14 03:30N 29°30' W 090°43'3 5.8
2018-Aug-14 03:00N 29°32' W 090°42'2 3.6
2018-Aug-14 02:30N 29°34' W 090°44'2 5.0
2018-Aug-14 02:00N 29°32' W 090°46'3 5.3
2018-Aug-14 01:30N 29°32' W 090°49'7 0.4
2018-Aug-13 09:20N 29°34' W 090°57'6 4.9
2018-Aug-13 08:06N 29°32' W 090°50'1 5.1
2018-Aug-13 07:58N 29°32' W 090°49'2 5.1
2018-Aug-13 07:30N 29°32' W 090°47'2 4.5
2018-Aug-13 07:00N 29°34' W 090°45'2 3.1
2018-Aug-13 06:29N 29°34' W 090°43'1 2.2
2018-Aug-13 05:59N 29°33' W 090°42'2 4.7
2018-Aug-13 05:30N 29°31' W 090°43'3 5.2
2018-Aug-13 05:00N 29°28' W 090°43'3 5.1
2018-Aug-13 04:27N 29°26' W 090°43'3 5.1
2018-Aug-13 03:55N 29°23' W 090°44'2 0.0
2018-Aug-11 01:58N 29°21' W 090°44'4 5.7
2018-Aug-11 01:20N 29°24' W 090°44'2 5.3
2018-Aug-11 01:00N 29°26' W 090°43'3 5.3
2018-Aug-11 00:30N 29°29' W 090°43'2 5.0
2018-Aug-11 00:00N 29°31' W 090°42'2 4.7
2018-Aug-10 23:30N 29°33' W 090°43'1 1.5
2018-Aug-10 22:58N 29°34' W 090°43'0 0.0
2018-Aug-10 22:31N 29°34' W 090°43'0 1.0
2018-Aug-10 22:00N 29°34' W 090°43'2 4.3
2018-Aug-10 21:30N 29°33' W 090°45'2 4.3
2018-Aug-10 21:00N 29°32' W 090°48'  

Dump ship's entire track history